Enos, Illinois
Current Conditions -  °F | °C
As of 10:55 AM on Saturday 20 Dec 2014 (Local Time) from K3LF Reporting Station
Overcast Overcast  
Wind Chill: 27°   Ceiling: 2800
Heat Index: 35°   Visibility: 7mi
Dew Point: 28°   Wind: 9mph
Humidity: 78%   Direction: 170°S
Pressure: 30.28"   Gusts: NA
Location:  39.2714°N, 89.9463°W
Report Text: K3LF 201655Z AUTO 17008KT 7SM BKN028 BKN046 OVC060 01/M02 A3028 RMK AO2 T00141021
Loading
Personal Weather Stations






























Interactive Weather Map New forecast layout! Learn more

10-Day Weather Forecast

Advertisements
Track Severe Weather on mobile